createdAt,value
2023-03-31T00:00:25.488Z,99984.19
2023-03-31T00:02:54.792Z,99959.75
2023-03-31T00:05:24.784Z,99988.88
2023-03-31T00:08:01.104Z,99992.75
2023-03-31T00:10:33.714Z,99995.19
2023-03-31T00:13:02.199Z,99980.97
2023-03-31T00:15:29.398Z,99964.34
2023-03-31T00:18:00.577Z,99906.50
2023-03-31T00:20:28.379Z,99898.69
2023-03-31T00:22:57.842Z,99898.13
2023-03-31T00:25:25.512Z,99872.91
2023-03-31T00:27:53.052Z,99852.06
2023-03-31T00:30:20.535Z,99858.31
2023-03-31T00:32:47.856Z,99840.91
2023-03-31T00:35:15.175Z,99823.75
2023-03-31T00:37:43.402Z,99822.06
2023-03-31T00:40:12.574Z,99827.50
2023-03-31T00:42:43.850Z,99841.19
2023-03-31T00:45:14.047Z,99827.13
2023-03-31T00:47:41.831Z,99823.84
2023-03-31T00:50:19.207Z,99816.19
2023-03-31T00:52:48.970Z,99800.38
2023-03-31T00:55:18.431Z,99793.22
2023-03-31T00:57:46.846Z,99795.91
2023-03-31T01:00:20.820Z,99791.09
2023-03-31T01:02:53.237Z,99795.50
2023-03-31T01:05:24.020Z,99763.72
2023-03-31T01:07:54.014Z,99767.31
2023-03-31T01:10:21.945Z,99774.88
2023-03-31T01:12:52.817Z,99761.31
2023-03-31T01:15:20.406Z,99767.50
2023-03-31T01:17:50.478Z,99765.59
2023-03-31T01:20:27.240Z,99759.38
2023-03-31T01:23:14.770Z,99747.50
2023-03-31T01:26:21.941Z,99736.88
2023-03-31T01:29:02.092Z,99752.56
2023-03-31T01:31:56.260Z,99742.94
2023-03-31T01:34:45.793Z,99735.78
2023-03-31T01:37:51.869Z,99734.00
2023-03-31T01:40:35.680Z,99730.88
2023-03-31T01:43:09.585Z,99724.00
2023-03-31T01:45:57.775Z,99718.84
2023-03-31T01:49:02.639Z,99705.44
2023-03-31T01:51:34.248Z,99689.97
2023-03-31T01:54:06.198Z,99679.38
2023-03-31T01:56:47.686Z,99676.16
2023-03-31T01:59:18.678Z,99658.84
2023-03-31T02:02:13.862Z,99676.81
2023-03-31T02:05:01.686Z,99672.97
2023-03-31T02:07:39.549Z,99662.19
2023-03-31T02:10:10.285Z,99650.72
2023-03-31T02:12:40.175Z,99659.97
2023-03-31T02:15:11.099Z,99656.41
2023-03-31T02:17:40.289Z,99649.84
2023-03-31T02:20:15.378Z,99648.44
2023-03-31T02:22:46.014Z,99644.75
2023-03-31T02:25:17.610Z,99641.19
2023-03-31T02:27:50.180Z,99640.06
2023-03-31T02:30:17.419Z,99635.06
2023-03-31T02:32:46.764Z,99623.59
2023-03-31T02:35:19.240Z,99621.78
2023-03-31T02:37:46.926Z,99612.84
2023-03-31T02:40:20.775Z,99602.75
2023-03-31T02:42:49.616Z,99602.75
2023-03-31T02:45:39.960Z,99585.38
2023-03-31T02:48:24.349Z,99576.03
2023-03-31T02:51:01.862Z,99554.19
2023-03-31T02:53:54.216Z,99555.16
2023-03-31T02:56:48.342Z,99554.63
2023-03-31T02:59:24.579Z,99540.13
2023-03-31T03:01:57.886Z,99544.63
2023-03-31T03:04:34.175Z,99536.25
2023-03-31T03:07:39.683Z,99537.28
2023-03-31T03:10:10.427Z,99534.50
2023-03-31T03:12:40.635Z,99528.59
2023-03-31T03:15:10.407Z,99531.09
2023-03-31T03:17:41.490Z,99541.78
2023-03-31T03:20:09.959Z,99532.78
2023-03-31T03:22:38.844Z,99529.41
2023-03-31T03:25:11.662Z,99533.78
2023-03-31T03:27:39.629Z,99525.91
2023-03-31T03:30:09.423Z,99512.13
2023-03-31T03:32:37.992Z,99513.81
2023-03-31T03:35:06.687Z,99508.09
2023-03-31T03:37:35.272Z,99503.19
2023-03-31T03:40:03.899Z,99500.56
2023-03-31T03:42:31.191Z,99503.78
2023-03-31T03:44:58.518Z,99495.47
2023-03-31T03:47:25.962Z,99498.69
2023-03-31T03:49:53.250Z,99494.16
2023-03-31T03:52:21.413Z,99488.50
2023-03-31T03:54:48.662Z,99484.25
2023-03-31T03:57:16.721Z,99479.44
2023-03-31T03:59:45.565Z,99478.34
2023-03-31T04:02:12.939Z,99462.56
2023-03-31T04:04:40.325Z,99457.75
2023-03-31T04:07:07.642Z,99458.19
2023-03-31T04:09:34.962Z,99455.75
2023-03-31T04:12:02.330Z,99445.16
2023-03-31T04:14:29.668Z,99447.53
2023-03-31T04:16:58.602Z,99449.81
2023-03-31T04:19:27.551Z,99453.94
2023-03-31T04:22:03.144Z,99457.31
2023-03-31T04:24:33.030Z,99452.34
2023-03-31T04:27:01.197Z,99443.97
2023-03-31T04:29:28.544Z,99452.78
2023-03-31T04:31:59.282Z,99437.69
2023-03-31T04:34:35.044Z,99441.44
2023-03-31T04:37:03.558Z,99440.19
2023-03-31T04:39:31.090Z,99431.16
2023-03-31T04:41:59.771Z,99449.31
2023-03-31T04:44:35.289Z,99440.69
2023-03-31T04:47:03.390Z,99453.38
2023-03-31T04:49:34.326Z,99453.50
2023-03-31T04:52:01.740Z,99451.09
2023-03-31T04:54:29.009Z,99455.94
2023-03-31T04:56:56.318Z,99444.00
2023-03-31T04:59:23.614Z,99445.72
2023-03-31T05:01:50.902Z,99432.25
2023-03-31T05:04:18.240Z,99438.31
2023-03-31T05:06:45.585Z,99440.06
2023-03-31T05:09:12.869Z,99444.44
2023-03-31T05:11:41.051Z,99446.38
2023-03-31T05:14:11.391Z,99444.84
2023-03-31T05:16:38.769Z,99429.66
2023-03-31T05:19:06.235Z,99420.44
2023-03-31T05:21:33.532Z,99418.13
2023-03-31T05:24:00.794Z,99425.69
2023-03-31T05:26:28.049Z,99424.81
2023-03-31T05:28:55.386Z,99428.19
2023-03-31T05:31:23.244Z,99420.03
2023-03-31T05:33:50.716Z,99408.91
2023-03-31T05:36:18.455Z,99404.41
2023-03-31T05:38:47.722Z,99401.88
2023-03-31T05:41:17.070Z,99404.28
2023-03-31T05:43:44.527Z,99415.34
2023-03-31T05:46:12.072Z,99415.59
2023-03-31T05:48:39.501Z,99402.72
2023-03-31T05:51:06.794Z,99403.97
2023-03-31T05:53:34.171Z,99412.44
2023-03-31T05:56:04.361Z,99413.19
2023-03-31T05:58:31.777Z,99412.63
2023-03-31T06:01:08.349Z,99410.53
2023-03-31T06:03:37.725Z,99428.41
2023-03-31T06:06:06.313Z,99423.75
2023-03-31T06:08:34.437Z,99425.97
2023-03-31T06:11:08.281Z,99427.53
2023-03-31T06:13:36.940Z,99415.66
2023-03-31T06:16:04.311Z,99406.97
2023-03-31T06:18:33.614Z,99410.84
2023-03-31T06:21:01.267Z,99417.16
2023-03-31T06:23:28.777Z,99420.19
2023-03-31T06:26:04.630Z,99401.81
2023-03-31T06:28:31.959Z,99409.78
2023-03-31T06:31:05.546Z,99421.72
2023-03-31T06:33:34.024Z,99415.09
2023-03-31T06:36:04.303Z,99426.84
2023-03-31T06:38:32.604Z,99425.00
2023-03-31T06:41:00.587Z,99424.53
2023-03-31T06:43:27.895Z,99420.38
2023-03-31T06:45:56.235Z,99431.88
2023-03-31T06:48:25.322Z,99427.75
2023-03-31T06:50:58.924Z,99449.72
2023-03-31T06:53:26.472Z,99434.34
2023-03-31T06:55:53.850Z,99435.44
2023-03-31T06:58:21.466Z,99437.53
2023-03-31T07:00:49.680Z,99430.72
2023-03-31T07:03:19.055Z,99427.94
2023-03-31T07:05:51.028Z,99419.34
2023-03-31T07:08:18.975Z,99425.06
2023-03-31T07:10:48.765Z,99420.13
2023-03-31T07:13:16.941Z,99423.25
2023-03-31T07:15:44.924Z,99419.94
2023-03-31T07:18:12.755Z,99426.31
2023-03-31T07:20:39.935Z,99415.38
2023-03-31T07:23:08.620Z,99421.88
2023-03-31T07:25:36.465Z,99428.38
2023-03-31T07:28:05.166Z,99446.59
2023-03-31T07:30:33.165Z,99445.66
2023-03-31T07:33:01.811Z,99440.84
2023-03-31T07:35:31.391Z,99433.53
2023-03-31T07:37:59.087Z,99418.06
2023-03-31T07:40:28.519Z,99443.19
2023-03-31T07:42:55.820Z,99444.00
2023-03-31T07:45:25.317Z,99433.03
2023-03-31T07:47:53.010Z,99440.59
2023-03-31T07:50:21.351Z,99445.22
2023-03-31T07:52:51.955Z,99440.78
2023-03-31T07:55:20.160Z,99443.34
2023-03-31T07:57:47.722Z,99450.28
2023-03-31T08:00:16.260Z,99431.69
2023-03-31T08:02:44.042Z,99446.00
2023-03-31T08:05:13.167Z,99439.53
2023-03-31T08:07:42.237Z,99428.63
2023-03-31T08:10:12.730Z,99439.09
2023-03-31T08:12:39.976Z,99436.63
2023-03-31T08:15:08.117Z,99439.81
2023-03-31T08:17:35.757Z,99447.28
2023-03-31T08:20:07.954Z,99459.78
2023-03-31T08:22:37.012Z,99447.34
2023-03-31T08:25:05.894Z,99442.13
2023-03-31T08:27:34.678Z,99446.38
2023-03-31T08:30:04.546Z,99432.44
2023-03-31T08:32:32.994Z,99436.97
2023-03-31T08:35:00.729Z,99434.13
2023-03-31T08:37:28.413Z,99436.78
2023-03-31T08:39:56.092Z,99436.16
2023-03-31T08:42:56.302Z,99434.75
2023-03-31T08:45:36.718Z,99439.84
2023-03-31T08:48:08.052Z,99421.78
2023-03-31T08:50:38.253Z,99411.78
2023-03-31T08:53:13.964Z,99421.09
2023-03-31T08:55:47.650Z,99421.78
2023-03-31T08:58:28.128Z,99418.91
2023-03-31T09:00:58.125Z,99424.13
2023-03-31T09:03:31.831Z,99413.84
2023-03-31T09:06:07.283Z,99428.16
2023-03-31T09:08:37.339Z,99414.16
2023-03-31T09:11:14.917Z,99420.81
2023-03-31T09:13:50.872Z,99426.25
2023-03-31T09:16:22.755Z,99411.59
2023-03-31T09:18:50.916Z,99409.50
2023-03-31T09:21:50.076Z,99429.75
2023-03-31T09:24:24.222Z,99428.03
2023-03-31T09:27:01.453Z,99418.25
2023-03-31T09:29:34.708Z,99408.63
2023-03-31T09:32:07.456Z,99431.13
2023-03-31T09:34:34.928Z,99432.22
2023-03-31T09:37:02.143Z,99425.97
2023-03-31T09:39:29.372Z,99407.13
2023-03-31T09:41:56.681Z,99423.88
2023-03-31T09:44:42.373Z,99425.91
2023-03-31T09:47:25.756Z,99416.16
2023-03-31T09:49:54.045Z,99417.03
2023-03-31T09:52:27.996Z,99407.03
2023-03-31T09:54:56.937Z,99406.47
2023-03-31T09:57:31.995Z,99405.94
2023-03-31T10:00:16.605Z,99416.97
2023-03-31T10:02:49.374Z,99409.53
2023-03-31T10:05:30.556Z,99405.47
2023-03-31T10:08:12.924Z,99400.53
2023-03-31T10:10:45.491Z,99407.00
2023-03-31T10:13:16.985Z,99392.50
2023-03-31T10:15:44.808Z,99392.78
2023-03-31T10:18:17.176Z,99397.28
2023-03-31T10:20:50.620Z,99413.91
2023-03-31T10:23:29.575Z,99406.69
2023-03-31T10:25:57.101Z,99406.59
2023-03-31T10:28:24.525Z,99412.16
2023-03-31T10:31:04.191Z,99411.41
2023-03-31T10:33:34.730Z,99410.31
2023-03-31T10:36:09.278Z,99402.53
2023-03-31T10:38:45.195Z,99404.31
2023-03-31T10:41:12.807Z,99389.69
2023-03-31T10:43:48.689Z,99397.44
2023-03-31T10:46:15.979Z,99400.91
2023-03-31T10:48:45.067Z,99404.06
2023-03-31T10:51:28.698Z,99391.56
2023-03-31T10:54:00.992Z,99408.59
2023-03-31T10:56:43.811Z,99392.50
2023-03-31T10:59:33.017Z,99391.50
2023-03-31T11:02:23.384Z,99407.81
2023-03-31T11:04:53.670Z,99405.75
2023-03-31T11:07:29.913Z,99416.09
2023-03-31T11:09:57.776Z,99399.13
2023-03-31T11:12:31.229Z,99407.09
2023-03-31T11:15:31.443Z,99404.00
2023-03-31T11:17:58.668Z,99400.81
2023-03-31T11:20:53.766Z,99394.13
2023-03-31T11:23:40.009Z,99410.66
2023-03-31T11:26:38.348Z,99400.50
2023-03-31T11:29:23.138Z,99411.19
2023-03-31T11:31:53.267Z,99394.44
2023-03-31T11:34:39.531Z,99394.28
2023-03-31T11:37:52.966Z,99402.25
2023-03-31T11:40:51.353Z,99373.47
2023-03-31T11:43:33.540Z,99364.69
2023-03-31T11:46:05.130Z,99371.06
2023-03-31T11:48:32.478Z,99376.44
2023-03-31T11:51:02.008Z,99372.97
2023-03-31T11:53:34.319Z,99357.75
2023-03-31T11:56:02.641Z,99374.66
2023-03-31T11:58:35.926Z,99358.34
2023-03-31T12:01:17.042Z,99362.97
2023-03-31T12:03:54.629Z,99355.13
2023-03-31T12:06:24.478Z,99359.19
2023-03-31T12:09:05.713Z,99364.09
2023-03-31T12:11:43.404Z,99366.25
2023-03-31T12:14:21.388Z,99391.34
2023-03-31T12:16:58.444Z,99400.06
2023-03-31T12:19:28.832Z,99377.31
2023-03-31T12:22:20.585Z,99386.16
2023-03-31T12:24:48.478Z,99383.16
2023-03-31T12:27:29.549Z,99373.88
2023-03-31T12:30:13.220Z,99392.00
2023-03-31T12:32:43.742Z,99389.19
2023-03-31T12:35:16.469Z,99367.63
2023-03-31T12:38:11.682Z,99355.59
2023-03-31T12:41:03.771Z,99369.88
2023-03-31T12:43:55.125Z,99377.50
2023-03-31T12:46:34.928Z,99358.97
2023-03-31T12:49:19.220Z,99372.25
2023-03-31T12:52:04.387Z,99366.31
2023-03-31T12:54:44.525Z,99364.50
2023-03-31T12:57:11.753Z,99352.22
2023-03-31T12:59:41.489Z,99372.69
2023-03-31T13:02:17.434Z,99380.66
2023-03-31T13:04:44.922Z,99385.63
2023-03-31T13:07:29.128Z,99380.00
2023-03-31T13:09:58.578Z,99374.59
2023-03-31T13:12:28.252Z,99361.97
2023-03-31T13:15:01.521Z,99364.22
2023-03-31T13:17:30.059Z,99358.84
2023-03-31T13:20:16.050Z,99363.88
2023-03-31T13:22:48.493Z,99350.66
2023-03-31T13:25:31.358Z,99344.69
2023-03-31T13:28:09.255Z,99348.25
2023-03-31T13:30:36.844Z,99351.09
2023-03-31T13:33:26.965Z,99338.69
2023-03-31T13:35:57.550Z,99341.72
2023-03-31T13:38:42.159Z,99355.78
2023-03-31T13:41:19.123Z,99348.22
2023-03-31T13:43:55.062Z,99352.94
2023-03-31T13:46:30.622Z,99364.66
2023-03-31T13:49:12.051Z,99370.84
2023-03-31T13:51:49.073Z,99378.69
2023-03-31T13:54:36.353Z,99372.41
2023-03-31T13:57:29.500Z,99382.91
2023-03-31T14:00:14.343Z,99411.63
2023-03-31T14:03:07.755Z,99423.59
2023-03-31T14:05:53.880Z,99419.50
2023-03-31T14:08:24.135Z,99456.97
2023-03-31T14:10:51.264Z,99410.59
2023-03-31T14:13:19.767Z,99412.75
2023-03-31T14:15:58.612Z,99428.59
2023-03-31T14:18:29.702Z,99413.34
2023-03-31T14:21:06.451Z,99405.63
2023-03-31T14:24:05.546Z,99404.50
2023-03-31T14:26:56.502Z,99403.44
2023-03-31T14:29:53.138Z,99395.66
2023-03-31T14:32:29.702Z,99385.84
2023-03-31T14:35:08.435Z,99385.69
2023-03-31T14:37:35.848Z,99389.63
2023-03-31T14:40:04.812Z,99386.75
2023-03-31T14:42:39.556Z,99386.44
2023-03-31T14:45:17.047Z,99391.16
2023-03-31T14:48:04.674Z,99390.41
2023-03-31T14:50:34.910Z,99379.09
2023-03-31T14:53:02.357Z,99386.69
2023-03-31T14:55:44.187Z,99382.25
2023-03-31T14:58:26.140Z,99405.00
2023-03-31T15:00:54.159Z,99426.50
2023-03-31T15:03:21.601Z,99440.72
2023-03-31T15:05:50.278Z,99442.91
2023-03-31T15:08:20.766Z,99433.91
2023-03-31T15:11:02.434Z,99423.69
2023-03-31T15:14:03.373Z,99443.63
2023-03-31T15:16:44.465Z,99453.44
2023-03-31T15:19:21.400Z,99444.56
2023-03-31T15:22:04.670Z,99446.38
2023-03-31T15:24:32.046Z,99447.09
2023-03-31T15:27:10.026Z,99450.41
2023-03-31T15:30:07.061Z,99444.38
2023-03-31T15:32:39.346Z,99445.84
2023-03-31T15:35:21.140Z,99446.16
2023-03-31T15:37:58.299Z,99444.97
2023-03-31T15:40:28.409Z,99453.94
2023-03-31T15:43:24.572Z,99466.66
2023-03-31T15:45:54.398Z,99458.34
2023-03-31T15:48:36.469Z,99455.09
2023-03-31T15:51:17.907Z,99454.91
2023-03-31T15:53:47.228Z,99462.81
2023-03-31T15:56:32.332Z,99471.59
2023-03-31T15:59:07.007Z,99476.34
2023-03-31T16:01:45.835Z,99478.75
2023-03-31T16:04:15.203Z,99470.78
2023-03-31T16:06:55.517Z,99473.34
2023-03-31T16:09:26.367Z,99473.53
2023-03-31T16:11:58.527Z,99469.06
2023-03-31T16:14:38.678Z,99485.31
2023-03-31T16:17:06.940Z,99479.03
2023-03-31T16:19:51.189Z,99468.44
2023-03-31T16:22:21.629Z,99464.72
2023-03-31T16:24:49.237Z,99458.97
2023-03-31T16:27:16.490Z,99459.50
2023-03-31T16:29:43.753Z,99461.13
2023-03-31T16:32:15.452Z,99461.53
2023-03-31T16:34:56.800Z,99465.28
2023-03-31T16:37:24.598Z,99478.06
2023-03-31T16:39:51.896Z,99469.72
2023-03-31T16:42:19.806Z,99473.50
2023-03-31T16:44:52.894Z,99475.34
2023-03-31T16:47:35.205Z,99478.69
2023-03-31T16:50:07.332Z,99466.78
2023-03-31T16:52:36.042Z,99474.94
2023-03-31T16:55:03.374Z,99474.34
2023-03-31T16:57:30.754Z,99474.13
2023-03-31T16:59:59.037Z,99479.06
2023-03-31T17:02:26.754Z,99475.78
2023-03-31T17:04:56.566Z,99483.03
2023-03-31T17:07:27.039Z,99494.72
2023-03-31T17:09:54.261Z,99484.47
2023-03-31T17:12:21.574Z,99489.00
2023-03-31T17:14:49.057Z,99498.38
2023-03-31T17:17:18.013Z,99501.72
2023-03-31T17:19:45.488Z,99505.00
2023-03-31T17:22:13.134Z,99508.44
2023-03-31T17:24:40.803Z,99512.81
2023-03-31T17:27:08.116Z,99518.13
2023-03-31T17:29:35.477Z,99519.22
2023-03-31T17:32:02.956Z,99525.13
2023-03-31T17:34:31.775Z,99527.94
2023-03-31T17:36:59.801Z,99516.97
2023-03-31T17:39:27.701Z,99523.59
2023-03-31T17:41:55.051Z,99524.91
2023-03-31T17:44:22.626Z,99534.22
2023-03-31T17:46:50.004Z,99529.56
2023-03-31T17:49:17.643Z,99524.47
2023-03-31T17:51:49.761Z,99531.53
2023-03-31T17:54:17.053Z,99532.09
2023-03-31T17:56:45.449Z,99538.56
2023-03-31T17:59:12.765Z,99531.66
2023-03-31T18:01:40.167Z,99539.69
2023-03-31T18:04:08.246Z,99547.59
2023-03-31T18:06:35.511Z,99537.94
2023-03-31T18:09:02.913Z,99556.94
2023-03-31T18:11:31.085Z,99553.97
2023-03-31T18:14:01.978Z,99556.00
2023-03-31T18:16:31.054Z,99553.66
2023-03-31T18:18:58.306Z,99562.19
2023-03-31T18:21:25.813Z,99566.91
2023-03-31T18:23:55.088Z,99570.78
2023-03-31T18:26:24.100Z,99592.94
2023-03-31T18:28:52.610Z,99577.97
2023-03-31T18:31:22.378Z,99586.03
2023-03-31T18:33:50.002Z,99576.97
2023-03-31T18:36:18.978Z,99583.41
2023-03-31T18:38:47.956Z,99594.94
2023-03-31T18:41:16.110Z,99601.47
2023-03-31T18:43:43.512Z,99602.63
2023-03-31T18:46:11.463Z,99597.38
2023-03-31T18:48:39.230Z,99608.19
2023-03-31T18:51:06.890Z,99611.16
2023-03-31T18:53:34.192Z,99613.53
2023-03-31T18:56:01.660Z,99598.56
2023-03-31T18:58:30.167Z,99600.16
2023-03-31T19:00:58.216Z,99616.13
2023-03-31T19:03:29.191Z,99621.94
2023-03-31T19:06:05.237Z,99618.13
2023-03-31T19:08:32.773Z,99614.44
2023-03-31T19:11:18.196Z,99626.88
2023-03-31T19:13:45.694Z,99631.88
2023-03-31T19:16:13.478Z,99630.31
2023-03-31T19:18:41.121Z,99619.41
2023-03-31T19:21:08.423Z,99627.19
2023-03-31T19:23:35.731Z,99626.94
2023-03-31T19:26:03.244Z,99639.63
2023-03-31T19:28:30.654Z,99649.97
2023-03-31T19:30:58.594Z,99639.06
2023-03-31T19:33:26.728Z,99639.78
2023-03-31T19:35:54.227Z,99645.31
2023-03-31T19:38:22.003Z,99656.13
2023-03-31T19:40:49.608Z,99657.03
2023-03-31T19:43:21.129Z,99646.47
2023-03-31T19:45:48.924Z,99648.78
2023-03-31T19:48:16.690Z,99646.69
2023-03-31T19:50:51.230Z,99652.41
2023-03-31T19:53:19.536Z,99652.16
2023-03-31T19:56:03.642Z,99644.28
2023-03-31T19:58:33.154Z,99637.81
2023-03-31T20:01:00.396Z,99643.25
2023-03-31T20:03:28.209Z,99653.34
2023-03-31T20:06:07.258Z,99651.91
2023-03-31T20:08:39.444Z,99655.13
2023-03-31T20:11:09.783Z,99657.53
2023-03-31T20:13:38.297Z,99660.84
2023-03-31T20:16:10.765Z,99661.38
2023-03-31T20:18:38.680Z,99671.13
2023-03-31T20:21:11.536Z,99665.13
2023-03-31T20:23:39.977Z,99676.38
2023-03-31T20:26:09.031Z,99672.88
2023-03-31T20:28:37.862Z,99674.75
2023-03-31T20:31:13.294Z,99664.41
2023-03-31T20:33:42.048Z,99683.94
2023-03-31T20:36:12.085Z,99676.38
2023-03-31T20:38:41.309Z,99691.78
2023-03-31T20:41:09.582Z,99685.31
2023-03-31T20:43:37.275Z,99682.19
2023-03-31T20:46:06.533Z,99691.19
2023-03-31T20:48:46.574Z,99694.19
2023-03-31T20:51:16.425Z,99690.41
2023-03-31T20:53:45.659Z,99688.16
2023-03-31T20:56:15.201Z,99688.59
2023-03-31T20:58:44.092Z,99689.06
2023-03-31T21:01:13.081Z,99686.88
2023-03-31T21:03:41.270Z,99683.75
2023-03-31T21:06:11.963Z,99687.03
2023-03-31T21:08:40.769Z,99691.78
2023-03-31T21:11:08.596Z,99696.19
2023-03-31T21:13:36.082Z,99700.84
2023-03-31T21:16:04.592Z,99707.66
2023-03-31T21:18:33.419Z,99705.44
2023-03-31T21:21:03.275Z,99708.63
2023-03-31T21:23:30.920Z,99704.81
2023-03-31T21:26:00.604Z,99704.44
2023-03-31T21:28:30.281Z,99701.50
2023-03-31T21:31:12.545Z,99725.09
2023-03-31T21:33:41.646Z,99709.13
2023-03-31T21:36:14.756Z,99709.81
2023-03-31T21:38:42.556Z,99699.91
2023-03-31T21:41:12.561Z,99699.25
2023-03-31T21:43:40.285Z,99704.78
2023-03-31T21:46:08.002Z,99704.91
2023-03-31T21:48:35.584Z,99706.06
2023-03-31T21:51:03.596Z,99714.13
2023-03-31T21:53:31.502Z,99708.81
2023-03-31T21:55:59.276Z,99708.97
2023-03-31T21:58:29.128Z,99692.28
2023-03-31T22:00:58.011Z,99707.03
2023-03-31T22:03:28.663Z,99718.88
2023-03-31T22:05:57.453Z,99713.91
2023-03-31T22:08:26.946Z,99720.09
2023-03-31T22:10:55.567Z,99734.31
2023-03-31T22:13:24.156Z,99717.38
2023-03-31T22:15:51.517Z,99722.59
2023-03-31T22:18:19.468Z,99708.19
2023-03-31T22:20:46.890Z,99717.50
2023-03-31T22:23:15.027Z,99723.16
2023-03-31T22:25:42.584Z,99716.72
2023-03-31T22:28:10.374Z,99707.41
2023-03-31T22:30:37.813Z,99719.94
2023-03-31T22:33:05.588Z,99717.00
2023-03-31T22:35:33.188Z,99717.53
2023-03-31T22:38:01.540Z,99728.22
2023-03-31T22:40:30.134Z,99731.22
2023-03-31T22:42:58.424Z,99729.72
2023-03-31T22:45:25.778Z,99739.97
2023-03-31T22:47:53.009Z,99734.00
2023-03-31T22:50:20.420Z,99738.59
2023-03-31T22:52:47.593Z,99748.63
2023-03-31T22:55:14.916Z,99740.88
2023-03-31T22:57:42.617Z,99736.06
2023-03-31T23:00:10.669Z,99746.63
2023-03-31T23:02:38.011Z,99750.09
2023-03-31T23:05:06.265Z,99746.13
2023-03-31T23:07:33.451Z,99747.06
2023-03-31T23:10:00.701Z,99744.66
2023-03-31T23:12:28.520Z,99745.47
2023-03-31T23:14:56.111Z,99749.41
2023-03-31T23:17:23.556Z,99742.03
2023-03-31T23:19:51.344Z,99748.25
2023-03-31T23:22:19.052Z,99749.16
2023-03-31T23:24:48.759Z,99760.28
2023-03-31T23:27:16.113Z,99759.41
2023-03-31T23:29:43.985Z,99752.94
2023-03-31T23:32:11.623Z,99752.47
2023-03-31T23:34:42.248Z,99741.09
2023-03-31T23:37:10.722Z,99750.66
2023-03-31T23:39:38.879Z,99746.41
2023-03-31T23:42:07.351Z,99733.06
2023-03-31T23:44:37.196Z,99745.84
2023-03-31T23:47:05.567Z,99739.28
2023-03-31T23:49:33.408Z,99742.50
2023-03-31T23:52:01.308Z,99744.22
2023-03-31T23:54:28.956Z,99747.78
2023-03-31T23:56:56.354Z,99751.59
2023-03-31T23:59:23.755Z,99748.38
